WetterOnline ( http://www.wetteronline.de )

Wetter aktuell Oeverdiek, Neuhof, Timmendorfer Strand

Aktuelles Wetter: Pelzerhaken/Neustadt i.H. (2m)

6-stündlich | Neueste Meldungen
Ortszeit Temperatur Wetter
Mi, 26.09. 8:00 11.0° C wolkig
Mi, 26.09. 2:00 11.1° C bedeckt
Di, 25.09. 20:00 11.8° C wolkig
Di, 25.09. 14:00 13.5° C wolkig
Di, 25.09. 8:00 6.7° C wolkenlos
Di, 25.09. 2:00 7.5° C wolkenlos
Mo, 24.09. 20:00 9.2° C wolkenlos
Mo, 24.09. 14:00 13.3° C leicht bewölkt
Ortszeit Temperatur Wetter
Mi, 26.09. 12:00 13.9° C bewölkt
Mi, 26.09. 11:50 13.9° C bewölkt
Mi, 26.09. 11:40 14.0° C wolkig
Mi, 26.09. 11:30 13.8° C -
Mi, 26.09. 11:20 13.8° C -
Mi, 26.09. 11:10 13.8° C -
Mi, 26.09. 11:00 13.2° C -
Mi, 26.09. 10:30 12.4° C wolkig
Mi, 26.09. 10:00 11.5° C bedeckt
Mi, 26.09. 9:30 10.9° C bedeckt
Mi, 26.09. 9:00 10.8° C bedeckt
Ortszeit Relative Feuchte Sichtweite
Mi, 26.09. 8:00 70% 26 km
Mi, 26.09. 2:00 77% 40 km
Di, 25.09. 20:00 69% 70 km
Di, 25.09. 14:00 51% 27 km
Di, 25.09. 8:00 80% 45 km
Di, 25.09. 2:00 77% 40 km
Mo, 24.09. 20:00 67% 65 km
Mo, 24.09. 14:00 57% 17 km
Ortszeit Relative Feuchte Sichtweite
Mi, 26.09. 12:00 56% 23 km
Mi, 26.09. 11:50 56% -
Mi, 26.09. 11:40 58% -
Mi, 26.09. 11:30 59% 20 km
Mi, 26.09. 11:20 59% -
Mi, 26.09. 11:10 58% -
Mi, 26.09. 11:00 62% 22 km
Mi, 26.09. 10:30 64% 30 km
Mi, 26.09. 10:00 68% 30 km
Mi, 26.09. 9:30 69% 30 km
Mi, 26.09. 9:00 71% 35 km
Ortszeit Niederschlagsmenge Niederschlagsart
Mi, 26.09. 8:00 0.1 l/m2 in 12 Std. Regen
Mi, 26.09. 2:00 0.0 l/m2 in 6 Std. -
Di, 25.09. 20:00 0.0 l/m2 in 12 Std. -
Di, 25.09. 14:00 0.0 l/m2 in 6 Std. -
Di, 25.09. 8:00 0.1 l/m2 in 12 Std. -
Di, 25.09. 2:00 0.1 l/m2 in 6 Std. Regen
Mo, 24.09. 20:00 0.6 l/m2 in 12 Std. Regen
Mo, 24.09. 14:00 0.1 l/m2 in 6 Std. Regen
Ortszeit Niederschlagsmenge Niederschlagsart
Mi, 26.09. 12:00 0.0 l/m2 in 1 Std. -
Mi, 26.09. 11:50 keine Meldung -
Mi, 26.09. 11:40 keine Meldung -
Mi, 26.09. 11:30 0.0 l/m2 in 1 Std. -
Mi, 26.09. 11:20 keine Meldung -
Mi, 26.09. 11:10 keine Meldung -
Mi, 26.09. 11:00 0.0 l/m2 in 1 Std. -
Mi, 26.09. 10:30 0.0 l/m2 in 1 Std. -
Mi, 26.09. 10:00 0.0 l/m2 in 1 Std. -
Mi, 26.09. 9:30 0.0 l/m2 in 1 Std. -
Mi, 26.09. 9:00 0.0 l/m2 in 1 Std. -
Ortszeit Stärke Spitze Richtung
km/h Bft. km/h Grad Sektor
Mi, 26.09. 8:00 31 5 46 230° SW
Mi, 26.09. 2:00 18 3 29 230° SW
Di, 25.09. 20:00 7 2 29 250° W
Di, 25.09. 14:00 11 2 28 280° W
Di, 25.09. 8:00 11 2 29 300° NW
Di, 25.09. 2:00 15 3 44 290° W
Mo, 24.09. 20:00 14 3 54 290° W
Mo, 24.09. 14:00 15 3 50 300° NW
Ortszeit Stärke Spitze Richtung
km/h Bft. km/h Grad Sektor
Mi, 26.09. 12:00 35 5 57 240° SW
Mi, 26.09. 11:50 35 5 - 240° SW
Mi, 26.09. 11:40 35 5 - 230° SW
Mi, 26.09. 11:30 36 5 54 230° SW
Mi, 26.09. 11:20 36 5 - 230° SW
Mi, 26.09. 11:10 35 5 - 230° SW
Mi, 26.09. 11:00 31 5 48 240° SW
Mi, 26.09. 10:30 28 4 44 240° SW
Mi, 26.09. 10:00 28 4 41 230° SW
Mi, 26.09. 9:30 28 4 41 230° SW
Mi, 26.09. 9:00 26 4 43 230° SW
Ortszeit Untergrenze Bedeckung Gattung
total tief tief mittel hoch
Mi, 26.09. 8:00 3300 m 8/8 2/8 - - -
Mi, 26.09. 2:00 6000 m 8/8 8/8 - - -
Di, 25.09. 20:00 7500 m 8/8 0/8 - - -
Di, 25.09. 14:00 1290 m 6/8 6/8 - - -
Di, 25.09. 8:00 - 0/8 0/8 - - -
Di, 25.09. 2:00 - 0/8 0/8 - - -
Mo, 24.09. 20:00 - 0/8 0/8 - - -
Mo, 24.09. 14:00 1500 m 5/8 1/8 - - -
Ortszeit Bedeckungsgrad in Achtel und Wolkenuntergrenze
Mi, 26.09. 12:00 5(1800m) 7(7500m) 8(9000m)
Mi, 26.09. 11:50 5(1800m) 7(7500m) 8(9000m)
Mi, 26.09. 11:40 3(1800m) 8(7500m) 8(9000m)
Mi, 26.09. 11:30 -
Mi, 26.09. 11:20 -
Mi, 26.09. 11:10 -
Mi, 26.09. 11:00 -
Mi, 26.09. 10:30 1(1500m) 7(5100m) 8(7500m)
Mi, 26.09. 10:00 4(3000m) 8(5100m) 8(5700m)
Mi, 26.09. 9:30 8(5100m)
Mi, 26.09. 9:00 8(5700m)
Ortszeit Luftdruck NN (hPa) Tendenz (hPa in 3 Std.)
Mi, 26.09. 8:00 1030 - 2,7
Mi, 26.09. 2:00 1034 - 1,6
Di, 25.09. 20:00 1036 - 0,6
Di, 25.09. 14:00 1038 + 0,7
Di, 25.09. 8:00 1035 + 1,5
Di, 25.09. 2:00 1032 + 1,9
Mo, 24.09. 20:00 1028 + 1,7
Mo, 24.09. 14:00 1025 + 1,4
Ortszeit Luftdruck NN (hPa) Tendenz (hPa in 3 Std.)
Mi, 26.09. 12:00 1028 - 1,9
Mi, 26.09. 11:50 1028 keine Meldung
Mi, 26.09. 11:40 1028 keine Meldung
Mi, 26.09. 11:30 1028 - 1,5
Mi, 26.09. 11:20 1028 keine Meldung
Mi, 26.09. 11:10 1028 keine Meldung
Mi, 26.09. 11:00 1029 - 1,1
Mi, 26.09. 10:30 1029 - 1,1
Mi, 26.09. 10:00 1029 - 1,5
Mi, 26.09. 9:30 1030 - 1,9
Mi, 26.09. 9:00 1030 - 2,0
Ortszeit Schneehöhe (cm)
Mi, 26.09. 8:00 0
Mi, 26.09. 2:00 0
Di, 25.09. 20:00 0
Di, 25.09. 14:00 0
Di, 25.09. 8:00 0
Di, 25.09. 2:00 0
Mo, 24.09. 20:00 0
Mo, 24.09. 14:00 0
Ortszeit Schneehöhe (cm)
Mi, 26.09. 12:00 0
Mi, 26.09. 11:50 0
Mi, 26.09. 11:40 0
Mi, 26.09. 11:30 0
Mi, 26.09. 11:20 0
Mi, 26.09. 11:10 0
Mi, 26.09. 11:00 0
Mi, 26.09. 10:30 0
Mi, 26.09. 10:00 0
Mi, 26.09. 9:30 0
Mi, 26.09. 9:00 0
Link zu dieser Seite / Seite empfehlen

Das Wetter in ...